Decoded Metar for KGON (GROTON/NEW LONDO in CT, USA) (IATA:GON) | Meteo·Mobile Aviation Weather
aviador You're here:

KGON Decoded Metar

GROTON/NEW LONDO in CT, USA
Report Time2018-12-17 13:56:00
UTC Time2018-12-17 14:28:05
Flight Rules vfr VFR
Wind340° at 09 kt
W.Decomp.*RWY 33: 8.2 kt HW 3.7 kt RCW
RWY 05: 5.0 kt HW 7.5 kt LCW
W.Rank340° ranks 10
Current wind is above 340° avg. (8.4)
Visibility9999 m
Phenomena:N/A
Clouds:Few 014 Hf
Broken 100 Hf
Broken 110 Hf
Expected CloudBase > 800 ft AGL from Temp-Dew spread
Ceiling10,000 ft
Temp03°C (ISA -12)
Dew Point01°C (87% RH)
AAT-2.1°C
QNH1005 hPa
Density Alt-1,083 ft
Elevation10 ft
Report Wrong Elevation
Raw Report
KGON 171356Z 34009KT 10SM FEW014 BKN100 BKN110 03/01 A2967 RMK AO2
SLP048 T00330011=

Extra information for KGON:More info

Metar Taf Metar & Taf Last 4 Metars F.Rules Stats Wind Profile Meteogram Temp Stats Airport Information Weather charts Add Link Nearby VenuesMetar ALERT Operation Metar Decoded Social comments

AIRNAV info for KGON